sensor_id;sensor_type;location;lat;lon;timestamp;P1;durP1;ratioP1;P2;durP2;ratioP2
14782;SDS011;7483;50.498;12.138;2023-04-03T00:02:12;1.35;;;1.02;;
14782;SDS011;7483;50.498;12.138;2023-04-03T00:04:39;1.27;;;1.08;;
14782;SDS011;7483;50.498;12.138;2023-04-03T00:07:07;4.70;;;1.48;;
14782;SDS011;7483;50.498;12.138;2023-04-03T00:09:34;2.20;;;1.42;;
14782;SDS011;7483;50.498;12.138;2023-04-03T00:12:02;2.00;;;1.42;;
14782;SDS011;7483;50.498;12.138;2023-04-03T00:14:30;1.85;;;1.10;;
14782;SDS011;7483;50.498;12.138;2023-04-03T00:16:59;5.40;;;1.20;;
14782;SDS011;7483;50.498;12.138;2023-04-03T00:19:26;2.33;;;1.10;;
14782;SDS011;7483;50.498;12.138;2023-04-03T00:21:54;2.08;;;1.00;;
14782;SDS011;7483;50.498;12.138;2023-04-03T00:24:22;1.38;;;0.98;;
14782;SDS011;7483;50.498;12.138;2023-04-03T00:26:50;1.48;;;1.00;;
14782;SDS011;7483;50.498;12.138;2023-04-03T00:29:18;3.33;;;1.13;;
14782;SDS011;7483;50.498;12.138;2023-04-03T00:31:46;0.80;;;0.70;;
14782;SDS011;7483;50.498;12.138;2023-04-03T00:34:14;0.60;;;0.60;;
14782;SDS011;7483;50.498;12.138;2023-04-03T00:36:42;2.03;;;0.98;;
14782;SDS011;7483;50.498;12.138;2023-04-03T00:39:10;1.58;;;1.10;;
14782;SDS011;7483;50.498;12.138;2023-04-03T00:41:37;3.22;;;1.00;;
14782;SDS011;7483;50.498;12.138;2023-04-03T00:44:18;2.88;;;1.42;;
14782;SDS011;7483;50.498;12.138;2023-04-03T00:46:47;1.40;;;0.90;;
14782;SDS011;7483;50.498;12.138;2023-04-03T00:49:16;1.65;;;0.77;;
14782;SDS011;7483;50.498;12.138;2023-04-03T00:51:44;1.70;;;1.08;;
14782;SDS011;7483;50.498;12.138;2023-04-03T00:54:11;2.58;;;0.90;;
14782;SDS011;7483;50.498;12.138;2023-04-03T00:56:40;3.53;;;1.45;;
14782;SDS011;7483;50.498;12.138;2023-04-03T00:59:08;1.33;;;0.82;;
14782;SDS011;7483;50.498;12.138;2023-04-03T01:01:38;1.35;;;0.98;;
14782;SDS011;7483;50.498;12.138;2023-04-03T01:04:24;1.50;;;1.10;;
14782;SDS011;7483;50.498;12.138;2023-04-03T01:06:56;2.80;;;1.30;;
14782;SDS011;7483;50.498;12.138;2023-04-03T01:09:25;1.50;;;0.82;;
14782;SDS011;7483;50.498;12.138;2023-04-03T01:11:53;1.70;;;0.90;;
14782;SDS011;7483;50.498;12.138;2023-04-03T01:14:21;2.05;;;0.80;;
14782;SDS011;7483;50.498;12.138;2023-04-03T01:16:52;1.20;;;0.68;;
14782;SDS011;7483;50.498;12.138;2023-04-03T01:19:20;3.38;;;0.90;;
14782;SDS011;7483;50.498;12.138;2023-04-03T01:21:56;1.70;;;0.75;;
14782;SDS011;7483;50.498;12.138;2023-04-03T01:24:34;0.80;;;0.80;;
14782;SDS011;7483;50.498;12.138;2023-04-03T01:27:05;2.42;;;1.10;;
14782;SDS011;7483;50.498;12.138;2023-04-03T01:29:34;1.70;;;0.80;;
14782;SDS011;7483;50.498;12.138;2023-04-03T01:32:04;2.22;;;1.13;;
14782;SDS011;7483;50.498;12.138;2023-04-03T01:34:32;1.15;;;0.85;;
14782;SDS011;7483;50.498;12.138;2023-04-03T01:37:00;0.73;;;0.70;;
14782;SDS011;7483;50.498;12.138;2023-04-03T01:39:27;1.40;;;0.88;;
14782;SDS011;7483;50.498;12.138;2023-04-03T01:41:55;1.00;;;0.73;;
14782;SDS011;7483;50.498;12.138;2023-04-03T01:44:30;1.23;;;0.65;;
14782;SDS011;7483;50.498;12.138;2023-04-03T01:46:57;1.73;;;1.05;;
14782;SDS011;7483;50.498;12.138;2023-04-03T01:49:28;1.90;;;0.63;;
14782;SDS011;7483;50.498;12.138;2023-04-03T01:51:56;1.23;;;0.80;;
14782;SDS011;7483;50.498;12.138;2023-04-03T01:54:23;2.53;;;0.77;;
14782;SDS011;7483;50.498;12.138;2023-04-03T01:56:51;0.98;;;0.68;;
14782;SDS011;7483;50.498;12.138;2023-04-03T01:59:20;0.82;;;0.82;;
14782;SDS011;7483;50.498;12.138;2023-04-03T02:01:47;1.40;;;1.30;;
14782;SDS011;7483;50.498;12.138;2023-04-03T02:04:15;2.67;;;1.08;;
14782;SDS011;7483;50.498;12.138;2023-04-03T02:06:44;2.47;;;1.00;;
14782;SDS011;7483;50.498;12.138;2023-04-03T02:09:11;0.70;;;0.68;;
14782;SDS011;7483;50.498;12.138;2023-04-03T02:11:39;1.88;;;0.90;;
14782;SDS011;7483;50.498;12.138;2023-04-03T02:14:07;1.00;;;0.75;;
14782;SDS011;7483;50.498;12.138;2023-04-03T02:16:34;1.35;;;0.90;;
14782;SDS011;7483;50.498;12.138;2023-04-03T02:19:03;2.90;;;0.90;;
14782;SDS011;7483;50.498;12.138;2023-04-03T02:21:30;2.03;;;0.93;;
14782;SDS011;7483;50.498;12.138;2023-04-03T02:24:01;1.33;;;0.60;;
14782;SDS011;7483;50.498;12.138;2023-04-03T02:26:29;1.85;;;0.98;;
14782;SDS011;7483;50.498;12.138;2023-04-03T02:28:57;2.72;;;0.93;;
14782;SDS011;7483;50.498;12.138;2023-04-03T02:31:24;3.17;;;0.80;;
14782;SDS011;7483;50.498;12.138;2023-04-03T02:33:52;1.48;;;0.75;;
14782;SDS011;7483;50.498;12.138;2023-04-03T02:36:20;1.25;;;0.93;;
14782;SDS011;7483;50.498;12.138;2023-04-03T02:38:52;1.23;;;1.13;;
14782;SDS011;7483;50.498;12.138;2023-04-03T02:41:21;1.50;;;0.88;;
14782;SDS011;7483;50.498;12.138;2023-04-03T02:43:51;1.05;;;0.70;;
14782;SDS011;7483;50.498;12.138;2023-04-03T02:46:19;2.05;;;0.80;;
14782;SDS011;7483;50.498;12.138;2023-04-03T02:48:46;2.35;;;0.85;;
14782;SDS011;7483;50.498;12.138;2023-04-03T02:51:14;2.10;;;0.82;;
14782;SDS011;7483;50.498;12.138;2023-04-03T02:53:42;1.80;;;0.80;;
14782;SDS011;7483;50.498;12.138;2023-04-03T02:58:44;1.80;;;0.82;;
14782;SDS011;7483;50.498;12.138;2023-04-03T03:01:12;1.60;;;1.48;;
14782;SDS011;7483;50.498;12.138;2023-04-03T03:03:40;1.08;;;0.55;;
14782;SDS011;7483;50.498;12.138;2023-04-03T03:06:08;1.20;;;0.98;;
14782;SDS011;7483;50.498;12.138;2023-04-03T03:08:38;0.70;;;0.60;;
14782;SDS011;7483;50.498;12.138;2023-04-03T03:11:06;1.35;;;0.70;;
14782;SDS011;7483;50.498;12.138;2023-04-03T03:13:34;1.77;;;1.25;;
14782;SDS011;7483;50.498;12.138;2023-04-03T03:16:03;1.08;;;0.60;;
14782;SDS011;7483;50.498;12.138;2023-04-03T03:18:31;1.52;;;0.88;;
14782;SDS011;7483;50.498;12.138;2023-04-03T03:21:00;1.50;;;0.70;;
14782;SDS011;7483;50.498;12.138;2023-04-03T03:23:29;1.98;;;0.90;;
14782;SDS011;7483;50.498;12.138;2023-04-03T03:25:59;2.28;;;0.80;;
14782;SDS011;7483;50.498;12.138;2023-04-03T03:28:27;1.02;;;0.93;;
14782;SDS011;7483;50.498;12.138;2023-04-03T03:30:55;1.13;;;0.75;;
14782;SDS011;7483;50.498;12.138;2023-04-03T03:33:25;1.55;;;1.00;;
14782;SDS011;7483;50.498;12.138;2023-04-03T03:35:53;0.80;;;0.80;;
14782;SDS011;7483;50.498;12.138;2023-04-03T03:38:21;3.15;;;0.75;;
14782;SDS011;7483;50.498;12.138;2023-04-03T03:40:49;3.28;;;1.17;;
14782;SDS011;7483;50.498;12.138;2023-04-03T03:43:19;2.45;;;1.33;;
14782;SDS011;7483;50.498;12.138;2023-04-03T03:45:49;1.40;;;1.05;;
14782;SDS011;7483;50.498;12.138;2023-04-03T03:48:17;0.80;;;0.50;;
14782;SDS011;7483;50.498;12.138;2023-04-03T03:50:46;2.30;;;1.10;;
14782;SDS011;7483;50.498;12.138;2023-04-03T03:53:15;1.52;;;0.90;;
14782;SDS011;7483;50.498;12.138;2023-04-03T03:55:43;1.95;;;0.98;;
14782;SDS011;7483;50.498;12.138;2023-04-03T03:58:11;2.03;;;1.10;;
14782;SDS011;7483;50.498;12.138;2023-04-03T04:00:39;1.48;;;0.88;;
14782;SDS011;7483;50.498;12.138;2023-04-03T04:03:07;1.02;;;0.90;;
14782;SDS011;7483;50.498;12.138;2023-04-03T04:05:35;2.08;;;1.10;;
14782;SDS011;7483;50.498;12.138;2023-04-03T04:08:05;1.98;;;0.80;;
14782;SDS011;7483;50.498;12.138;2023-04-03T04:10:33;3.97;;;1.00;;
14782;SDS011;7483;50.498;12.138;2023-04-03T04:13:01;2.88;;;0.80;;
14782;SDS011;7483;50.498;12.138;2023-04-03T04:15:30;0.90;;;0.60;;
14782;SDS011;7483;50.498;12.138;2023-04-03T04:17:58;1.25;;;1.02;;
14782;SDS011;7483;50.498;12.138;2023-04-03T04:20:26;1.85;;;0.80;;
14782;SDS011;7483;50.498;12.138;2023-04-03T04:22:53;2.15;;;1.35;;
14782;SDS011;7483;50.498;12.138;2023-04-03T04:25:23;1.85;;;0.88;;
14782;SDS011;7483;50.498;12.138;2023-04-03T04:27:51;1.77;;;1.02;;
14782;SDS011;7483;50.498;12.138;2023-04-03T04:30:18;1.63;;;1.10;;
14782;SDS011;7483;50.498;12.138;2023-04-03T04:32:47;3.00;;;1.23;;
14782;SDS011;7483;50.498;12.138;2023-04-03T04:35:16;5.82;;;2.78;;
14782;SDS011;7483;50.498;12.138;2023-04-03T04:37:47;1.35;;;0.90;;
14782;SDS011;7483;50.498;12.138;2023-04-03T04:40:15;0.90;;;0.80;;
14782;SDS011;7483;50.498;12.138;2023-04-03T04:42:45;2.25;;;1.10;;
14782;SDS011;7483;50.498;12.138;2023-04-03T04:45:12;2.05;;;1.13;;
14782;SDS011;7483;50.498;12.138;2023-04-03T04:47:43;2.22;;;1.05;;
14782;SDS011;7483;50.498;12.138;2023-04-03T04:50:11;0.98;;;0.85;;
14782;SDS011;7483;50.498;12.138;2023-04-03T04:52:39;1.00;;;0.88;;
14782;SDS011;7483;50.498;12.138;2023-04-03T04:55:07;0.80;;;0.80;;
14782;SDS011;7483;50.498;12.138;2023-04-03T04:57:35;1.50;;;1.40;;
14782;SDS011;7483;50.498;12.138;2023-04-03T05:00:07;2.10;;;1.42;;
14782;SDS011;7483;50.498;12.138;2023-04-03T05:02:35;0.82;;;0.82;;
14782;SDS011;7483;50.498;12.138;2023-04-03T05:05:03;1.55;;;1.15;;
14782;SDS011;7483;50.498;12.138;2023-04-03T05:07:32;1.52;;;1.40;;
14782;SDS011;7483;50.498;12.138;2023-04-03T05:10:02;2.55;;;1.50;;
14782;SDS011;7483;50.498;12.138;2023-04-03T05:12:30;1.50;;;1.40;;
14782;SDS011;7483;50.498;12.138;2023-04-03T05:15:00;2.72;;;1.50;;
14782;SDS011;7483;50.498;12.138;2023-04-03T05:17:31;2.15;;;1.38;;
14782;SDS011;7483;50.498;12.138;2023-04-03T05:19:59;3.22;;;2.85;;
14782;SDS011;7483;50.498;12.138;2023-04-03T05:22:27;2.08;;;1.08;;
14782;SDS011;7483;50.498;12.138;2023-04-03T05:25:00;1.40;;;1.05;;
14782;SDS011;7483;50.498;12.138;2023-04-03T05:27:28;1.60;;;1.30;;
14782;SDS011;7483;50.498;12.138;2023-04-03T05:29:57;1.85;;;1.42;;
14782;SDS011;7483;50.498;12.138;2023-04-03T05:32:26;1.85;;;1.60;;
14782;SDS011;7483;50.498;12.138;2023-04-03T05:35:18;1.65;;;1.40;;
14782;SDS011;7483;50.498;12.138;2023-04-03T05:37:49;1.80;;;1.70;;
14782;SDS011;7483;50.498;12.138;2023-04-03T05:40:17;2.42;;;1.98;;
14782;SDS011;7483;50.498;12.138;2023-04-03T05:45:18;1.33;;;1.23;;
14782;SDS011;7483;50.498;12.138;2023-04-03T05:47:46;2.00;;;1.80;;
14782;SDS011;7483;50.498;12.138;2023-04-03T05:50:14;2.45;;;1.90;;
14782;SDS011;7483;50.498;12.138;2023-04-03T05:52:44;1.88;;;1.70;;
14782;SDS011;7483;50.498;12.138;2023-04-03T05:55:13;2.30;;;1.92;;
14782;SDS011;7483;50.498;12.138;2023-04-03T05:57:41;3.25;;;1.80;;
14782;SDS011;7483;50.498;12.138;2023-04-03T06:00:11;1.75;;;1.55;;
14782;SDS011;7483;50.498;12.138;2023-04-03T06:02:49;2.47;;;1.30;;
14782;SDS011;7483;50.498;12.138;2023-04-03T06:05:21;2.00;;;1.67;;
14782;SDS011;7483;50.498;12.138;2023-04-03T06:07:50;2.08;;;1.42;;
14782;SDS011;7483;50.498;12.138;2023-04-03T06:10:18;1.52;;;1.42;;
14782;SDS011;7483;50.498;12.138;2023-04-03T06:12:46;2.65;;;2.22;;
14782;SDS011;7483;50.498;12.138;2023-04-03T06:15:13;2.45;;;1.80;;
14782;SDS011;7483;50.498;12.138;2023-04-03T06:17:43;2.33;;;2.13;;
14782;SDS011;7483;50.498;12.138;2023-04-03T06:20:11;2.05;;;1.45;;
14782;SDS011;7483;50.498;12.138;2023-04-03T06:22:39;2.42;;;1.85;;
14782;SDS011;7483;50.498;12.138;2023-04-03T06:25:12;2.13;;;1.80;;
14782;SDS011;7483;50.498;12.138;2023-04-03T06:27:39;2.47;;;1.83;;
14782;SDS011;7483;50.498;12.138;2023-04-03T06:30:07;1.63;;;1.52;;
14782;SDS011;7483;50.498;12.138;2023-04-03T06:32:35;2.58;;;1.90;;
14782;SDS011;7483;50.498;12.138;2023-04-03T06:35:04;3.70;;;2.55;;
14782;SDS011;7483;50.498;12.138;2023-04-03T06:37:33;2.28;;;1.50;;
14782;SDS011;7483;50.498;12.138;2023-04-03T06:40:00;1.95;;;1.85;;
14782;SDS011;7483;50.498;12.138;2023-04-03T06:42:30;2.22;;;1.95;;
14782;SDS011;7483;50.498;12.138;2023-04-03T06:45:08;2.10;;;1.83;;
14782;SDS011;7483;50.498;12.138;2023-04-03T06:47:37;4.18;;;1.75;;
14782;SDS011;7483;50.498;12.138;2023-04-03T06:50:05;2.90;;;2.05;;
14782;SDS011;7483;50.498;12.138;2023-04-03T06:52:35;2.42;;;2.03;;
14782;SDS011;7483;50.498;12.138;2023-04-03T06:55:02;1.58;;;1.42;;
14782;SDS011;7483;50.498;12.138;2023-04-03T06:57:32;1.85;;;1.60;;
14782;SDS011;7483;50.498;12.138;2023-04-03T07:00:00;1.83;;;1.63;;
14782;SDS011;7483;50.498;12.138;2023-04-03T07:02:28;2.00;;;1.80;;
14782;SDS011;7483;50.498;12.138;2023-04-03T07:04:55;1.35;;;1.25;;
14782;SDS011;7483;50.498;12.138;2023-04-03T07:07:23;2.60;;;1.33;;
14782;SDS011;7483;50.498;12.138;2023-04-03T07:09:50;1.75;;;1.40;;
14782;SDS011;7483;50.498;12.138;2023-04-03T07:12:18;1.80;;;1.67;;
14782;SDS011;7483;50.498;12.138;2023-04-03T07:14:47;2.25;;;1.50;;
14782;SDS011;7483;50.498;12.138;2023-04-03T07:17:16;1.55;;;1.30;;
14782;SDS011;7483;50.498;12.138;2023-04-03T07:19:43;0.93;;;0.93;;
14782;SDS011;7483;50.498;12.138;2023-04-03T07:22:11;2.67;;;1.88;;
14782;SDS011;7483;50.498;12.138;2023-04-03T07:24:39;5.10;;;3.05;;
14782;SDS011;7483;50.498;12.138;2023-04-03T07:27:06;1.92;;;1.60;;
14782;SDS011;7483;50.498;12.138;2023-04-03T07:29:34;2.78;;;1.90;;
14782;SDS011;7483;50.498;12.138;2023-04-03T07:32:04;2.92;;;2.28;;
14782;SDS011;7483;50.498;12.138;2023-04-03T07:34:33;3.72;;;1.60;;
14782;SDS011;7483;50.498;12.138;2023-04-03T07:37:00;2.47;;;2.22;;
14782;SDS011;7483;50.498;12.138;2023-04-03T07:39:28;1.48;;;1.30;;
14782;SDS011;7483;50.498;12.138;2023-04-03T07:41:56;1.60;;;1.08;;
14782;SDS011;7483;50.498;12.138;2023-04-03T07:44:24;1.95;;;1.42;;
14782;SDS011;7483;50.498;12.138;2023-04-03T07:46:52;1.42;;;1.33;;
14782;SDS011;7483;50.498;12.138;2023-04-03T07:49:22;1.98;;;1.42;;
14782;SDS011;7483;50.498;12.138;2023-04-03T07:51:50;2.67;;;1.30;;
14782;SDS011;7483;50.498;12.138;2023-04-03T07:54:19;1.58;;;1.30;;
14782;SDS011;7483;50.498;12.138;2023-04-03T07:56:47;2.10;;;1.85;;
14782;SDS011;7483;50.498;12.138;2023-04-03T07:59:15;2.58;;;2.05;;
14782;SDS011;7483;50.498;12.138;2023-04-03T08:01:43;1.40;;;1.23;;
14782;SDS011;7483;50.498;12.138;2023-04-03T08:04:10;2.80;;;1.52;;
14782;SDS011;7483;50.498;12.138;2023-04-03T08:06:39;1.35;;;1.05;;
14782;SDS011;7483;50.498;12.138;2023-04-03T08:09:12;1.23;;;1.13;;
14782;SDS011;7483;50.498;12.138;2023-04-03T08:11:41;2.28;;;1.85;;
14782;SDS011;7483;50.498;12.138;2023-04-03T08:14:08;1.75;;;1.17;;
14782;SDS011;7483;50.498;12.138;2023-04-03T08:16:41;1.00;;;0.95;;
14782;SDS011;7483;50.498;12.138;2023-04-03T08:19:09;1.80;;;1.40;;
14782;SDS011;7483;50.498;12.138;2023-04-03T08:21:52;1.65;;;1.35;;
14782;SDS011;7483;50.498;12.138;2023-04-03T08:24:21;1.17;;;1.00;;
14782;SDS011;7483;50.498;12.138;2023-04-03T08:26:48;2.22;;;1.20;;
14782;SDS011;7483;50.498;12.138;2023-04-03T08:29:16;1.27;;;1.13;;
14782;SDS011;7483;50.498;12.138;2023-04-03T08:31:43;2.13;;;0.93;;
14782;SDS011;7483;50.498;12.138;2023-04-03T08:34:12;1.92;;;1.05;;
14782;SDS011;7483;50.498;12.138;2023-04-03T08:36:40;1.55;;;1.45;;
14782;SDS011;7483;50.498;12.138;2023-04-03T08:39:09;1.75;;;1.08;;
14782;SDS011;7483;50.498;12.138;2023-04-03T08:41:38;1.40;;;1.08;;
14782;SDS011;7483;50.498;12.138;2023-04-03T08:44:13;1.15;;;1.00;;
14782;SDS011;7483;50.498;12.138;2023-04-03T08:46:47;2.25;;;2.05;;
14782;SDS011;7483;50.498;12.138;2023-04-03T08:49:24;1.33;;;1.23;;
14782;SDS011;7483;50.498;12.138;2023-04-03T08:51:54;1.85;;;1.08;;
14782;SDS011;7483;50.498;12.138;2023-04-03T08:54:27;1.48;;;1.38;;
14782;SDS011;7483;50.498;12.138;2023-04-03T08:56:58;1.50;;;1.10;;
14782;SDS011;7483;50.498;12.138;2023-04-03T08:59:28;2.53;;;1.33;;
14782;SDS011;7483;50.498;12.138;2023-04-03T09:01:59;0.60;;;0.60;;
14782;SDS011;7483;50.498;12.138;2023-04-03T09:04:31;1.70;;;1.17;;
14782;SDS011;7483;50.498;12.138;2023-04-03T09:07:02;1.30;;;0.82;;
14782;SDS011;7483;50.498;12.138;2023-04-03T09:09:36;1.00;;;0.70;;
14782;SDS011;7483;50.498;12.138;2023-04-03T09:12:11;1.10;;;1.00;;
14782;SDS011;7483;50.498;12.138;2023-04-03T09:14:44;1.13;;;1.02;;
14782;SDS011;7483;50.498;12.138;2023-04-03T09:17:15;1.23;;;0.85;;
14782;SDS011;7483;50.498;12.138;2023-04-03T09:19:49;4.18;;;1.80;;
14782;SDS011;7483;50.498;12.138;2023-04-03T09:22:23;1.23;;;0.73;;
14782;SDS011;7483;50.498;12.138;2023-04-03T09:24:55;2.28;;;1.40;;
14782;SDS011;7483;50.498;12.138;2023-04-03T09:29:52;1.33;;;1.10;;
14782;SDS011;7483;50.498;12.138;2023-04-03T09:32:22;2.38;;;1.55;;
14782;SDS011;7483;50.498;12.138;2023-04-03T09:34:53;0.60;;;0.60;;
14782;SDS011;7483;50.498;12.138;2023-04-03T09:37:35;0.77;;;0.68;;
14782;SDS011;7483;50.498;12.138;2023-04-03T09:40:12;1.17;;;1.08;;
14782;SDS011;7483;50.498;12.138;2023-04-03T09:42:56;1.63;;;1.52;;
14782;SDS011;7483;50.498;12.138;2023-04-03T09:45:27;1.83;;;1.08;;
14782;SDS011;7483;50.498;12.138;2023-04-03T09:48:04;3.63;;;3.28;;
14782;SDS011;7483;50.498;12.138;2023-04-03T09:50:52;1.77;;;0.85;;
14782;SDS011;7483;50.498;12.138;2023-04-03T09:53:26;1.20;;;1.02;;
14782;SDS011;7483;50.498;12.138;2023-04-03T09:55:57;1.23;;;0.75;;
14782;SDS011;7483;50.498;12.138;2023-04-03T09:58:27;4.50;;;2.33;;
14782;SDS011;7483;50.498;12.138;2023-04-03T10:01:25;1.27;;;0.73;;
14782;SDS011;7483;50.498;12.138;2023-04-03T10:04:02;1.05;;;0.73;;
14782;SDS011;7483;50.498;12.138;2023-04-03T10:06:36;0.80;;;0.52;;
14782;SDS011;7483;50.498;12.138;2023-04-03T10:09:15;1.65;;;0.90;;
14782;SDS011;7483;50.498;12.138;2023-04-03T10:11:59;1.67;;;0.80;;
14782;SDS011;7483;50.498;12.138;2023-04-03T10:14:28;0.93;;;0.60;;
14782;SDS011;7483;50.498;12.138;2023-04-03T10:16:58;0.68;;;0.60;;
14782;SDS011;7483;50.498;12.138;2023-04-03T10:19:32;1.00;;;0.50;;
14782;SDS011;7483;50.498;12.138;2023-04-03T10:22:03;0.85;;;0.65;;
14782;SDS011;7483;50.498;12.138;2023-04-03T10:24:36;0.80;;;0.80;;
14782;SDS011;7483;50.498;12.138;2023-04-03T10:27:10;0.52;;;0.50;;
14782;SDS011;7483;50.498;12.138;2023-04-03T10:29:40;0.70;;;0.70;;
14782;SDS011;7483;50.498;12.138;2023-04-03T10:32:14;0.50;;;0.50;;
14782;SDS011;7483;50.498;12.138;2023-04-03T10:34:50;0.82;;;0.77;;
14782;SDS011;7483;50.498;12.138;2023-04-03T10:37:24;0.80;;;0.60;;
14782;SDS011;7483;50.498;12.138;2023-04-03T10:39:57;1.80;;;0.80;;
14782;SDS011;7483;50.498;12.138;2023-04-03T10:42:28;0.77;;;0.60;;
14782;SDS011;7483;50.498;12.138;2023-04-03T10:45:03;1.58;;;0.75;;
14782;SDS011;7483;50.498;12.138;2023-04-03T10:47:37;1.05;;;0.88;;
14782;SDS011;7483;50.498;12.138;2023-04-03T10:50:13;1.67;;;0.88;;
14782;SDS011;7483;50.498;12.138;2023-04-03T10:52:51;1.30;;;0.98;;
14782;SDS011;7483;50.498;12.138;2023-04-03T10:55:24;1.30;;;1.20;;
14782;SDS011;7483;50.498;12.138;2023-04-03T10:58:00;0.85;;;0.85;;
14782;SDS011;7483;50.498;12.138;2023-04-03T11:00:30;1.13;;;0.65;;
14782;SDS011;7483;50.498;12.138;2023-04-03T11:03:05;1.23;;;0.80;;
14782;SDS011;7483;50.498;12.138;2023-04-03T11:05:34;1.58;;;0.65;;
14782;SDS011;7483;50.498;12.138;2023-04-03T11:08:06;1.17;;;0.85;;
14782;SDS011;7483;50.498;12.138;2023-04-03T11:10:40;0.68;;;0.52;;
14782;SDS011;7483;50.498;12.138;2023-04-03T11:13:10;1.20;;;0.90;;
14782;SDS011;7483;50.498;12.138;2023-04-03T11:15:39;1.10;;;1.00;;
14782;SDS011;7483;50.498;12.138;2023-04-03T11:18:09;0.60;;;0.55;;
14782;SDS011;7483;50.498;12.138;2023-04-03T11:20:40;0.88;;;0.57;;
14782;SDS011;7483;50.498;12.138;2023-04-03T11:23:12;0.60;;;0.50;;
14782;SDS011;7483;50.498;12.138;2023-04-03T11:25:42;0.88;;;0.70;;
14782;SDS011;7483;50.498;12.138;2023-04-03T11:28:13;0.68;;;0.60;;
14782;SDS011;7483;50.498;12.138;2023-04-03T11:30:42;1.00;;;0.90;;
14782;SDS011;7483;50.498;12.138;2023-04-03T11:36:00;0.60;;;0.50;;
14782;SDS011;7483;50.498;12.138;2023-04-03T11:38:51;0.52;;;0.52;;
14782;SDS011;7483;50.498;12.138;2023-04-03T11:41:25;0.50;;;0.50;;
14782;SDS011;7483;50.498;12.138;2023-04-03T11:43:59;1.63;;;0.82;;
14782;SDS011;7483;50.498;12.138;2023-04-03T11:55:42;0.70;;;0.57;;
14782;SDS011;7483;50.498;12.138;2023-04-03T11:58:13;0.63;;;0.60;;
14782;SDS011;7483;50.498;12.138;2023-04-03T12:12:30;0.75;;;0.75;;
14782;SDS011;7483;50.498;12.138;2023-04-03T12:17:51;0.50;;;0.45;;
14782;SDS011;7483;50.498;12.138;2023-04-03T12:23:28;0.68;;;0.43;;
14782;SDS011;7483;50.498;12.138;2023-04-03T12:26:05;0.73;;;0.40;;
14782;SDS011;7483;50.498;12.138;2023-04-03T12:28:48;0.50;;;0.50;;
14782;SDS011;7483;50.498;12.138;2023-04-03T12:31:17;0.70;;;0.70;;
14782;SDS011;7483;50.498;12.138;2023-04-03T12:33:56;0.98;;;0.63;;
14782;SDS011;7483;50.498;12.138;2023-04-03T12:36:30;0.85;;;0.65;;
14782;SDS011;7483;50.498;12.138;2023-04-03T12:39:06;0.50;;;0.30;;
14782;SDS011;7483;50.498;12.138;2023-04-03T12:41:46;0.65;;;0.50;;
14782;SDS011;7483;50.498;12.138;2023-04-03T12:44:37;0.85;;;0.63;;
14782;SDS011;7483;50.498;12.138;2023-04-03T12:47:16;1.08;;;0.77;;
14782;SDS011;7483;50.498;12.138;2023-04-03T12:49:50;0.80;;;0.73;;
14782;SDS011;7483;50.498;12.138;2023-04-03T12:52:24;0.50;;;0.40;;
14782;SDS011;7483;50.498;12.138;2023-04-03T12:54:57;1.02;;;0.75;;
14782;SDS011;7483;50.498;12.138;2023-04-03T12:57:28;0.63;;;0.50;;
14782;SDS011;7483;50.498;12.138;2023-04-03T12:59:55;0.93;;;0.80;;
14782;SDS011;7483;50.498;12.138;2023-04-03T13:02:24;1.00;;;0.82;;
14782;SDS011;7483;50.498;12.138;2023-04-03T13:04:55;0.30;;;0.30;;
14782;SDS011;7483;50.498;12.138;2023-04-03T13:07:26;0.77;;;0.50;;
14782;SDS011;7483;50.498;12.138;2023-04-03T13:09:58;1.13;;;0.68;;
14782;SDS011;7483;50.498;12.138;2023-04-03T13:12:27;1.10;;;0.95;;
14782;SDS011;7483;50.498;12.138;2023-04-03T13:14:58;0.47;;;0.47;;
14782;SDS011;7483;50.498;12.138;2023-04-03T13:17:27;0.57;;;0.30;;
14782;SDS011;7483;50.498;12.138;2023-04-03T13:19:56;0.40;;;0.40;;
14782;SDS011;7483;50.498;12.138;2023-04-03T13:22:38;0.28;;;0.22;;
14782;SDS011;7483;50.498;12.138;2023-04-03T13:27:38;0.80;;;0.43;;
14782;SDS011;7483;50.498;12.138;2023-04-03T13:30:17;0.45;;;0.45;;
14782;SDS011;7483;50.498;12.138;2023-04-03T13:32:47;0.60;;;0.50;;
14782;SDS011;7483;50.498;12.138;2023-04-03T13:35:30;0.45;;;0.40;;
14782;SDS011;7483;50.498;12.138;2023-04-03T13:38:01;0.52;;;0.52;;
14782;SDS011;7483;50.498;12.138;2023-04-03T13:40:30;0.73;;;0.55;;
14782;SDS011;7483;50.498;12.138;2023-04-03T13:43:17;0.40;;;0.40;;
14782;SDS011;7483;50.498;12.138;2023-04-03T13:45:53;0.38;;;0.38;;
14782;SDS011;7483;50.498;12.138;2023-04-03T13:48:22;1.00;;;0.60;;
14782;SDS011;7483;50.498;12.138;2023-04-03T13:50:53;0.47;;;0.45;;
14782;SDS011;7483;50.498;12.138;2023-04-03T13:53:23;0.40;;;0.30;;
14782;SDS011;7483;50.498;12.138;2023-04-03T13:55:53;0.77;;;0.60;;
14782;SDS011;7483;50.498;12.138;2023-04-03T14:00:52;2.60;;;0.50;;
14782;SDS011;7483;50.498;12.138;2023-04-03T14:03:22;0.73;;;0.50;;
14782;SDS011;7483;50.498;12.138;2023-04-03T14:05:53;0.98;;;0.43;;
14782;SDS011;7483;50.498;12.138;2023-04-03T14:08:20;1.50;;;0.40;;
14782;SDS011;7483;50.498;12.138;2023-04-03T14:11:05;0.45;;;0.38;;
14782;SDS011;7483;50.498;12.138;2023-04-03T14:13:32;0.43;;;0.43;;
14782;SDS011;7483;50.498;12.138;2023-04-03T14:16:00;1.05;;;0.50;;
14782;SDS011;7483;50.498;12.138;2023-04-03T14:18:40;0.50;;;0.40;;
14782;SDS011;7483;50.498;12.138;2023-04-03T14:21:11;0.50;;;0.40;;
14782;SDS011;7483;50.498;12.138;2023-04-03T14:23:39;0.40;;;0.40;;
14782;SDS011;7483;50.498;12.138;2023-04-03T14:26:08;0.47;;;0.43;;
14782;SDS011;7483;50.498;12.138;2023-04-03T14:28:38;0.40;;;0.40;;
14782;SDS011;7483;50.498;12.138;2023-04-03T14:31:09;0.80;;;0.40;;
14782;SDS011;7483;50.498;12.138;2023-04-03T14:33:37;0.50;;;0.50;;
14782;SDS011;7483;50.498;12.138;2023-04-03T14:36:11;0.47;;;0.47;;
14782;SDS011;7483;50.498;12.138;2023-04-03T14:38:40;0.55;;;0.40;;
14782;SDS011;7483;50.498;12.138;2023-04-03T14:41:10;1.13;;;0.47;;
14782;SDS011;7483;50.498;12.138;2023-04-03T14:43:42;2.55;;;0.50;;
14782;SDS011;7483;50.498;12.138;2023-04-03T14:46:12;0.65;;;0.65;;
14782;SDS011;7483;50.498;12.138;2023-04-03T14:48:41;0.77;;;0.77;;
14782;SDS011;7483;50.498;12.138;2023-04-03T14:51:11;1.00;;;0.90;;
14782;SDS011;7483;50.498;12.138;2023-04-03T14:53:39;0.60;;;0.60;;
14782;SDS011;7483;50.498;12.138;2023-04-03T14:56:10;0.57;;;0.50;;
14782;SDS011;7483;50.498;12.138;2023-04-03T14:58:40;0.70;;;0.40;;
14782;SDS011;7483;50.498;12.138;2023-04-03T15:01:09;0.65;;;0.60;;
14782;SDS011;7483;50.498;12.138;2023-04-03T15:03:37;0.52;;;0.40;;
14782;SDS011;7483;50.498;12.138;2023-04-03T15:06:05;0.52;;;0.40;;
14782;SDS011;7483;50.498;12.138;2023-04-03T15:08:34;0.63;;;0.47;;
14782;SDS011;7483;50.498;12.138;2023-04-03T15:11:02;0.65;;;0.60;;
14782;SDS011;7483;50.498;12.138;2023-04-03T15:13:30;0.90;;;0.47;;
14782;SDS011;7483;50.498;12.138;2023-04-03T15:15:57;0.22;;;0.20;;
14782;SDS011;7483;50.498;12.138;2023-04-03T15:18:26;0.45;;;0.40;;
14782;SDS011;7483;50.498;12.138;2023-04-03T15:20:56;0.50;;;0.43;;
14782;SDS011;7483;50.498;12.138;2023-04-03T15:23:23;1.00;;;0.50;;
14782;SDS011;7483;50.498;12.138;2023-04-03T15:25:53;0.55;;;0.45;;
14782;SDS011;7483;50.498;12.138;2023-04-03T15:28:22;0.40;;;0.40;;
14782;SDS011;7483;50.498;12.138;2023-04-03T15:30:52;0.30;;;0.30;;
14782;SDS011;7483;50.498;12.138;2023-04-03T15:33:20;0.40;;;0.40;;
14782;SDS011;7483;50.498;12.138;2023-04-03T15:35:48;0.50;;;0.50;;
14782;SDS011;7483;50.498;12.138;2023-04-03T15:38:15;0.50;;;0.50;;
14782;SDS011;7483;50.498;12.138;2023-04-03T15:40:43;0.90;;;0.60;;
14782;SDS011;7483;50.498;12.138;2023-04-03T15:43:12;0.52;;;0.52;;
14782;SDS011;7483;50.498;12.138;2023-04-03T15:45:40;0.40;;;0.40;;
14782;SDS011;7483;50.498;12.138;2023-04-03T15:48:07;0.40;;;0.40;;
14782;SDS011;7483;50.498;12.138;2023-04-03T15:50:35;1.33;;;1.23;;